sensor_id;sensor_type;location;lat;lon;timestamp;P1;durP1;ratioP1;P2;durP2;ratioP2
809;SDS011;387;48.772;9.186;2022-08-27T00:00:29;38.73;;;20.97;;
809;SDS011;387;48.772;9.186;2022-08-27T00:02:55;39.50;;;21.87;;
809;SDS011;387;48.772;9.186;2022-08-27T00:05:22;49.80;;;24.70;;
809;SDS011;387;48.772;9.186;2022-08-27T00:07:48;37.33;;;22.37;;
809;SDS011;387;48.772;9.186;2022-08-27T00:10:18;53.00;;;26.77;;
809;SDS011;387;48.772;9.186;2022-08-27T00:12:45;44.73;;;25.50;;
809;SDS011;387;48.772;9.186;2022-08-27T00:15:12;40.40;;;21.43;;
809;SDS011;387;48.772;9.186;2022-08-27T00:17:39;41.93;;;23.80;;
809;SDS011;387;48.772;9.186;2022-08-27T00:20:05;38.00;;;22.03;;
809;SDS011;387;48.772;9.186;2022-08-27T00:22:32;49.50;;;24.27;;
809;SDS011;387;48.772;9.186;2022-08-27T00:24:59;40.40;;;22.40;;
809;SDS011;387;48.772;9.186;2022-08-27T00:27:24;49.00;;;25.57;;
809;SDS011;387;48.772;9.186;2022-08-27T00:29:50;48.97;;;27.00;;
809;SDS011;387;48.772;9.186;2022-08-27T00:32:16;43.43;;;23.67;;
809;SDS011;387;48.772;9.186;2022-08-27T00:34:42;38.33;;;22.37;;
809;SDS011;387;48.772;9.186;2022-08-27T00:37:08;40.30;;;22.20;;
809;SDS011;387;48.772;9.186;2022-08-27T00:39:34;42.27;;;23.80;;
809;SDS011;387;48.772;9.186;2022-08-27T00:42:00;37.67;;;22.10;;
809;SDS011;387;48.772;9.186;2022-08-27T00:44:27;34.37;;;19.70;;
809;SDS011;387;48.772;9.186;2022-08-27T00:46:54;41.77;;;22.17;;
809;SDS011;387;48.772;9.186;2022-08-27T00:49:33;34.73;;;19.63;;
809;SDS011;387;48.772;9.186;2022-08-27T00:52:29;39.87;;;24.37;;
809;SDS011;387;48.772;9.186;2022-08-27T00:55:05;39.50;;;22.73;;
809;SDS011;387;48.772;9.186;2022-08-27T00:57:43;41.27;;;23.50;;
809;SDS011;387;48.772;9.186;2022-08-27T01:00:15;43.07;;;21.17;;
809;SDS011;387;48.772;9.186;2022-08-27T01:02:42;39.20;;;21.50;;
809;SDS011;387;48.772;9.186;2022-08-27T01:05:11;41.70;;;22.57;;
809;SDS011;387;48.772;9.186;2022-08-27T01:07:45;45.77;;;24.33;;
809;SDS011;387;48.772;9.186;2022-08-27T01:10:15;41.07;;;22.97;;
809;SDS011;387;48.772;9.186;2022-08-27T01:12:43;50.20;;;25.67;;
809;SDS011;387;48.772;9.186;2022-08-27T01:15:12;53.30;;;25.33;;
809;SDS011;387;48.772;9.186;2022-08-27T01:17:39;56.77;;;28.50;;
809;SDS011;387;48.772;9.186;2022-08-27T01:20:08;52.83;;;25.70;;
809;SDS011;387;48.772;9.186;2022-08-27T01:22:58;45.40;;;24.60;;
809;SDS011;387;48.772;9.186;2022-08-27T01:25:30;51.83;;;27.50;;
809;SDS011;387;48.772;9.186;2022-08-27T01:27:56;52.60;;;28.43;;
809;SDS011;387;48.772;9.186;2022-08-27T01:30:25;50.27;;;27.37;;
809;SDS011;387;48.772;9.186;2022-08-27T01:32:51;50.33;;;27.90;;
809;SDS011;387;48.772;9.186;2022-08-27T01:35:17;47.83;;;25.80;;
809;SDS011;387;48.772;9.186;2022-08-27T01:37:45;44.97;;;25.07;;
809;SDS011;387;48.772;9.186;2022-08-27T01:40:13;47.20;;;26.67;;
809;SDS011;387;48.772;9.186;2022-08-27T01:42:41;48.20;;;26.70;;
809;SDS011;387;48.772;9.186;2022-08-27T01:45:16;49.20;;;25.50;;
809;SDS011;387;48.772;9.186;2022-08-27T01:47:45;47.57;;;26.17;;
809;SDS011;387;48.772;9.186;2022-08-27T01:50:15;46.60;;;25.33;;
809;SDS011;387;48.772;9.186;2022-08-27T01:52:43;45.20;;;24.33;;
809;SDS011;387;48.772;9.186;2022-08-27T01:55:10;43.90;;;25.27;;
809;SDS011;387;48.772;9.186;2022-08-27T01:57:37;48.50;;;26.37;;
809;SDS011;387;48.772;9.186;2022-08-27T02:00:05;47.33;;;25.07;;
809;SDS011;387;48.772;9.186;2022-08-27T02:02:33;43.17;;;24.27;;
809;SDS011;387;48.772;9.186;2022-08-27T02:04:59;48.87;;;26.47;;
809;SDS011;387;48.772;9.186;2022-08-27T02:07:24;47.30;;;27.43;;
809;SDS011;387;48.772;9.186;2022-08-27T02:09:50;41.10;;;24.13;;
809;SDS011;387;48.772;9.186;2022-08-27T02:12:16;45.60;;;24.80;;
809;SDS011;387;48.772;9.186;2022-08-27T02:14:41;53.70;;;27.10;;
809;SDS011;387;48.772;9.186;2022-08-27T02:17:07;53.27;;;27.30;;
809;SDS011;387;48.772;9.186;2022-08-27T02:19:32;49.90;;;26.40;;
809;SDS011;387;48.772;9.186;2022-08-27T02:21:58;53.87;;;28.77;;
809;SDS011;387;48.772;9.186;2022-08-27T02:24:25;48.27;;;27.37;;
809;SDS011;387;48.772;9.186;2022-08-27T02:26:53;47.53;;;25.83;;
809;SDS011;387;48.772;9.186;2022-08-27T02:29:20;55.60;;;28.50;;
809;SDS011;387;48.772;9.186;2022-08-27T02:31:46;50.93;;;28.13;;
809;SDS011;387;48.772;9.186;2022-08-27T02:34:11;51.97;;;28.90;;
809;SDS011;387;48.772;9.186;2022-08-27T02:36:37;44.93;;;24.47;;
809;SDS011;387;48.772;9.186;2022-08-27T02:39:04;47.57;;;25.43;;
809;SDS011;387;48.772;9.186;2022-08-27T02:41:30;49.57;;;26.67;;
809;SDS011;387;48.772;9.186;2022-08-27T02:43:56;47.90;;;25.80;;
809;SDS011;387;48.772;9.186;2022-08-27T02:46:21;49.17;;;24.93;;
809;SDS011;387;48.772;9.186;2022-08-27T02:48:47;47.20;;;26.60;;
809;SDS011;387;48.772;9.186;2022-08-27T02:51:13;50.03;;;26.90;;
809;SDS011;387;48.772;9.186;2022-08-27T02:53:39;48.47;;;26.83;;
809;SDS011;387;48.772;9.186;2022-08-27T02:56:05;53.07;;;26.77;;
809;SDS011;387;48.772;9.186;2022-08-27T02:58:31;45.23;;;25.03;;
809;SDS011;387;48.772;9.186;2022-08-27T03:00:58;48.63;;;24.43;;
809;SDS011;387;48.772;9.186;2022-08-27T03:03:27;49.40;;;26.30;;
809;SDS011;387;48.772;9.186;2022-08-27T03:05:54;53.80;;;28.87;;
809;SDS011;387;48.772;9.186;2022-08-27T03:08:20;50.53;;;27.80;;
809;SDS011;387;48.772;9.186;2022-08-27T03:10:45;46.60;;;25.13;;
809;SDS011;387;48.772;9.186;2022-08-27T03:13:11;56.03;;;29.80;;
809;SDS011;387;48.772;9.186;2022-08-27T03:15:36;45.63;;;24.80;;
809;SDS011;387;48.772;9.186;2022-08-27T03:18:02;54.37;;;28.03;;
809;SDS011;387;48.772;9.186;2022-08-27T03:20:45;46.77;;;25.80;;
809;SDS011;387;48.772;9.186;2022-08-27T03:23:11;55.07;;;26.17;;
809;SDS011;387;48.772;9.186;2022-08-27T03:25:38;45.37;;;24.23;;
809;SDS011;387;48.772;9.186;2022-08-27T03:28:07;44.57;;;23.10;;
809;SDS011;387;48.772;9.186;2022-08-27T03:30:32;49.07;;;25.80;;
809;SDS011;387;48.772;9.186;2022-08-27T03:32:58;43.23;;;23.70;;
809;SDS011;387;48.772;9.186;2022-08-27T03:35:24;38.80;;;22.33;;
809;SDS011;387;48.772;9.186;2022-08-27T03:37:49;37.80;;;22.53;;
809;SDS011;387;48.772;9.186;2022-08-27T03:40:15;41.97;;;23.77;;
809;SDS011;387;48.772;9.186;2022-08-27T03:42:41;44.53;;;23.03;;
809;SDS011;387;48.772;9.186;2022-08-27T03:45:07;38.53;;;23.00;;
809;SDS011;387;48.772;9.186;2022-08-27T03:47:34;44.30;;;24.70;;
809;SDS011;387;48.772;9.186;2022-08-27T03:50:00;42.10;;;24.47;;
809;SDS011;387;48.772;9.186;2022-08-27T03:52:26;41.53;;;21.73;;
809;SDS011;387;48.772;9.186;2022-08-27T03:54:53;34.03;;;19.13;;
809;SDS011;387;48.772;9.186;2022-08-27T03:57:18;39.50;;;21.53;;
809;SDS011;387;48.772;9.186;2022-08-27T03:59:44;36.43;;;20.77;;
809;SDS011;387;48.772;9.186;2022-08-27T04:02:09;33.80;;;19.80;;
809;SDS011;387;48.772;9.186;2022-08-27T04:04:35;34.90;;;19.90;;
809;SDS011;387;48.772;9.186;2022-08-27T04:07:01;33.37;;;18.07;;
809;SDS011;387;48.772;9.186;2022-08-27T04:09:27;31.03;;;19.30;;
809;SDS011;387;48.772;9.186;2022-08-27T04:11:52;33.23;;;18.67;;
809;SDS011;387;48.772;9.186;2022-08-27T04:14:18;31.93;;;18.40;;
809;SDS011;387;48.772;9.186;2022-08-27T04:16:44;30.73;;;18.77;;
809;SDS011;387;48.772;9.186;2022-08-27T04:19:09;34.60;;;21.60;;
809;SDS011;387;48.772;9.186;2022-08-27T04:21:36;50.70;;;28.23;;
809;SDS011;387;48.772;9.186;2022-08-27T04:24:02;61.93;;;31.87;;
809;SDS011;387;48.772;9.186;2022-08-27T04:26:28;63.57;;;34.13;;
809;SDS011;387;48.772;9.186;2022-08-27T04:28:55;52.20;;;30.17;;
809;SDS011;387;48.772;9.186;2022-08-27T04:31:21;56.93;;;29.30;;
809;SDS011;387;48.772;9.186;2022-08-27T04:33:47;54.70;;;30.40;;
809;SDS011;387;48.772;9.186;2022-08-27T04:36:12;51.47;;;29.37;;
809;SDS011;387;48.772;9.186;2022-08-27T04:38:38;56.20;;;28.33;;
809;SDS011;387;48.772;9.186;2022-08-27T04:41:05;58.57;;;30.63;;
809;SDS011;387;48.772;9.186;2022-08-27T04:43:46;52.93;;;27.67;;
809;SDS011;387;48.772;9.186;2022-08-27T04:46:19;64.77;;;32.80;;
809;SDS011;387;48.772;9.186;2022-08-27T04:48:50;58.90;;;31.70;;
809;SDS011;387;48.772;9.186;2022-08-27T04:51:16;58.20;;;32.40;;
809;SDS011;387;48.772;9.186;2022-08-27T04:53:42;58.87;;;29.83;;
809;SDS011;387;48.772;9.186;2022-08-27T04:56:07;66.07;;;32.30;;
809;SDS011;387;48.772;9.186;2022-08-27T04:58:38;67.30;;;34.33;;
809;SDS011;387;48.772;9.186;2022-08-27T05:01:04;62.17;;;33.57;;
809;SDS011;387;48.772;9.186;2022-08-27T05:03:31;52.50;;;28.90;;
809;SDS011;387;48.772;9.186;2022-08-27T05:05:58;68.63;;;34.63;;
809;SDS011;387;48.772;9.186;2022-08-27T05:08:26;58.57;;;30.60;;
809;SDS011;387;48.772;9.186;2022-08-27T05:10:51;67.80;;;35.67;;
809;SDS011;387;48.772;9.186;2022-08-27T05:13:18;57.23;;;31.37;;
809;SDS011;387;48.772;9.186;2022-08-27T05:15:44;63.23;;;32.40;;
809;SDS011;387;48.772;9.186;2022-08-27T05:18:11;65.27;;;34.40;;
809;SDS011;387;48.772;9.186;2022-08-27T05:20:47;57.40;;;30.87;;
809;SDS011;387;48.772;9.186;2022-08-27T05:23:14;65.40;;;30.73;;
809;SDS011;387;48.772;9.186;2022-08-27T05:25:41;60.50;;;31.73;;
809;SDS011;387;48.772;9.186;2022-08-27T05:28:09;58.43;;;28.83;;
809;SDS011;387;48.772;9.186;2022-08-27T05:30:37;73.47;;;35.63;;
809;SDS011;387;48.772;9.186;2022-08-27T05:33:05;63.20;;;32.00;;
809;SDS011;387;48.772;9.186;2022-08-27T05:35:31;62.90;;;31.03;;
809;SDS011;387;48.772;9.186;2022-08-27T05:38:03;54.97;;;29.90;;
809;SDS011;387;48.772;9.186;2022-08-27T05:40:29;57.77;;;29.40;;
809;SDS011;387;48.772;9.186;2022-08-27T05:42:54;64.60;;;30.90;;
809;SDS011;387;48.772;9.186;2022-08-27T05:45:20;56.83;;;30.77;;
809;SDS011;387;48.772;9.186;2022-08-27T05:47:46;72.83;;;35.20;;
809;SDS011;387;48.772;9.186;2022-08-27T05:50:11;66.30;;;31.30;;
809;SDS011;387;48.772;9.186;2022-08-27T05:52:37;64.97;;;34.63;;
809;SDS011;387;48.772;9.186;2022-08-27T05:55:03;71.37;;;32.70;;
809;SDS011;387;48.772;9.186;2022-08-27T05:57:28;64.07;;;32.80;;
809;SDS011;387;48.772;9.186;2022-08-27T05:59:54;63.40;;;33.13;;
809;SDS011;387;48.772;9.186;2022-08-27T06:02:38;70.40;;;32.53;;
809;SDS011;387;48.772;9.186;2022-08-27T06:05:04;57.07;;;30.30;;
809;SDS011;387;48.772;9.186;2022-08-27T06:07:31;63.70;;;32.70;;
809;SDS011;387;48.772;9.186;2022-08-27T06:09:58;61.57;;;33.10;;
809;SDS011;387;48.772;9.186;2022-08-27T06:12:24;63.10;;;32.57;;
809;SDS011;387;48.772;9.186;2022-08-27T06:14:50;63.20;;;32.87;;
809;SDS011;387;48.772;9.186;2022-08-27T06:17:16;69.63;;;37.70;;
809;SDS011;387;48.772;9.186;2022-08-27T06:19:42;66.17;;;32.67;;
809;SDS011;387;48.772;9.186;2022-08-27T06:22:07;68.07;;;34.60;;
809;SDS011;387;48.772;9.186;2022-08-27T06:24:33;71.70;;;35.73;;
809;SDS011;387;48.772;9.186;2022-08-27T06:26:59;67.17;;;34.50;;
809;SDS011;387;48.772;9.186;2022-08-27T06:29:25;60.70;;;33.13;;
809;SDS011;387;48.772;9.186;2022-08-27T06:31:51;61.70;;;31.83;;
809;SDS011;387;48.772;9.186;2022-08-27T06:34:18;54.17;;;30.60;;
809;SDS011;387;48.772;9.186;2022-08-27T06:36:44;53.33;;;29.53;;
809;SDS011;387;48.772;9.186;2022-08-27T06:39:10;64.43;;;35.33;;
809;SDS011;387;48.772;9.186;2022-08-27T06:41:39;52.40;;;29.90;;
809;SDS011;387;48.772;9.186;2022-08-27T06:44:07;56.07;;;30.17;;
809;SDS011;387;48.772;9.186;2022-08-27T06:46:32;58.00;;;31.00;;
809;SDS011;387;48.772;9.186;2022-08-27T06:49:00;59.83;;;32.30;;
809;SDS011;387;48.772;9.186;2022-08-27T06:51:27;66.70;;;35.67;;
809;SDS011;387;48.772;9.186;2022-08-27T06:53:55;62.17;;;32.93;;
809;SDS011;387;48.772;9.186;2022-08-27T06:56:25;67.30;;;32.27;;
809;SDS011;387;48.772;9.186;2022-08-27T06:58:53;62.83;;;33.43;;
809;SDS011;387;48.772;9.186;2022-08-27T07:01:21;62.83;;;32.40;;
809;SDS011;387;48.772;9.186;2022-08-27T07:03:50;60.77;;;32.43;;
809;SDS011;387;48.772;9.186;2022-08-27T07:06:18;58.30;;;31.70;;
809;SDS011;387;48.772;9.186;2022-08-27T07:08:43;68.67;;;33.90;;
809;SDS011;387;48.772;9.186;2022-08-27T07:11:11;85.00;;;34.80;;
809;SDS011;387;48.772;9.186;2022-08-27T07:13:38;57.60;;;31.13;;
809;SDS011;387;48.772;9.186;2022-08-27T07:16:05;68.53;;;34.00;;
809;SDS011;387;48.772;9.186;2022-08-27T07:18:34;58.70;;;30.93;;
809;SDS011;387;48.772;9.186;2022-08-27T07:21:00;60.97;;;32.50;;
809;SDS011;387;48.772;9.186;2022-08-27T07:23:28;60.90;;;31.00;;
809;SDS011;387;48.772;9.186;2022-08-27T07:25:54;56.00;;;32.27;;
809;SDS011;387;48.772;9.186;2022-08-27T07:28:20;58.13;;;31.43;;
809;SDS011;387;48.772;9.186;2022-08-27T07:30:45;58.37;;;29.70;;
809;SDS011;387;48.772;9.186;2022-08-27T07:33:11;56.00;;;29.93;;
809;SDS011;387;48.772;9.186;2022-08-27T07:35:37;53.63;;;30.47;;
809;SDS011;387;48.772;9.186;2022-08-27T07:38:03;67.50;;;32.60;;
809;SDS011;387;48.772;9.186;2022-08-27T07:40:28;60.70;;;29.90;;
809;SDS011;387;48.772;9.186;2022-08-27T07:42:54;67.23;;;31.80;;
809;SDS011;387;48.772;9.186;2022-08-27T07:45:46;62.50;;;32.30;;
809;SDS011;387;48.772;9.186;2022-08-27T07:48:12;58.60;;;30.47;;
809;SDS011;387;48.772;9.186;2022-08-27T07:50:40;63.00;;;32.53;;
809;SDS011;387;48.772;9.186;2022-08-27T07:53:06;60.07;;;32.40;;
809;SDS011;387;48.772;9.186;2022-08-27T07:55:34;63.10;;;33.10;;
809;SDS011;387;48.772;9.186;2022-08-27T07:58:01;65.03;;;32.50;;
809;SDS011;387;48.772;9.186;2022-08-27T08:00:27;66.77;;;34.73;;
809;SDS011;387;48.772;9.186;2022-08-27T08:02:53;68.23;;;34.90;;
809;SDS011;387;48.772;9.186;2022-08-27T08:05:18;69.90;;;33.90;;
809;SDS011;387;48.772;9.186;2022-08-27T08:07:44;63.37;;;31.93;;
809;SDS011;387;48.772;9.186;2022-08-27T08:10:10;63.87;;;33.67;;
809;SDS011;387;48.772;9.186;2022-08-27T08:12:36;69.03;;;35.50;;
809;SDS011;387;48.772;9.186;2022-08-27T08:15:03;62.53;;;33.13;;
809;SDS011;387;48.772;9.186;2022-08-27T08:17:32;62.67;;;34.87;;
809;SDS011;387;48.772;9.186;2022-08-27T08:19:58;67.93;;;32.37;;
809;SDS011;387;48.772;9.186;2022-08-27T08:22:24;65.03;;;35.10;;
809;SDS011;387;48.772;9.186;2022-08-27T08:24:51;65.07;;;35.33;;
809;SDS011;387;48.772;9.186;2022-08-27T08:27:17;67.10;;;34.83;;
809;SDS011;387;48.772;9.186;2022-08-27T08:29:44;64.53;;;34.33;;
809;SDS011;387;48.772;9.186;2022-08-27T08:32:11;68.27;;;35.77;;
809;SDS011;387;48.772;9.186;2022-08-27T08:34:36;71.07;;;34.93;;
809;SDS011;387;48.772;9.186;2022-08-27T08:37:02;71.53;;;35.43;;
809;SDS011;387;48.772;9.186;2022-08-27T08:39:28;71.50;;;35.13;;
809;SDS011;387;48.772;9.186;2022-08-27T08:41:55;70.90;;;37.40;;
809;SDS011;387;48.772;9.186;2022-08-27T08:44:29;73.47;;;37.40;;
809;SDS011;387;48.772;9.186;2022-08-27T08:51:56;65.03;;;34.30;;
809;SDS011;387;48.772;9.186;2022-08-27T08:54:32;73.30;;;38.13;;
809;SDS011;387;48.772;9.186;2022-08-27T09:00:12;73.73;;;37.20;;
809;SDS011;387;48.772;9.186;2022-08-27T09:02:39;66.77;;;35.17;;
809;SDS011;387;48.772;9.186;2022-08-27T09:05:08;79.23;;;39.17;;
809;SDS011;387;48.772;9.186;2022-08-27T09:07:42;81.10;;;38.03;;
809;SDS011;387;48.772;9.186;2022-08-27T09:10:23;74.17;;;38.03;;
809;SDS011;387;48.772;9.186;2022-08-27T09:12:56;72.53;;;36.80;;
809;SDS011;387;48.772;9.186;2022-08-27T09:15:26;64.80;;;32.50;;
809;SDS011;387;48.772;9.186;2022-08-27T09:18:05;70.70;;;37.33;;
809;SDS011;387;48.772;9.186;2022-08-27T09:20:36;70.30;;;36.70;;
809;SDS011;387;48.772;9.186;2022-08-27T09:23:08;69.63;;;35.10;;
809;SDS011;387;48.772;9.186;2022-08-27T09:25:45;43.30;;;23.30;;
809;SDS011;387;48.772;9.186;2022-08-27T09:28:16;38.33;;;22.10;;
809;SDS011;387;48.772;9.186;2022-08-27T09:31:07;34.30;;;19.53;;
809;SDS011;387;48.772;9.186;2022-08-27T09:33:36;41.37;;;21.70;;
809;SDS011;387;48.772;9.186;2022-08-27T09:36:03;36.27;;;20.53;;
809;SDS011;387;48.772;9.186;2022-08-27T09:38:32;38.40;;;21.20;;
809;SDS011;387;48.772;9.186;2022-08-27T09:41:00;39.77;;;22.97;;
809;SDS011;387;48.772;9.186;2022-08-27T09:43:29;39.70;;;21.10;;
809;SDS011;387;48.772;9.186;2022-08-27T09:46:00;36.83;;;21.10;;
809;SDS011;387;48.772;9.186;2022-08-27T09:48:31;34.47;;;19.20;;
809;SDS011;387;48.772;9.186;2022-08-27T09:51:00;34.60;;;19.80;;
809;SDS011;387;48.772;9.186;2022-08-27T10:01:33;31.90;;;19.30;;
809;SDS011;387;48.772;9.186;2022-08-27T10:04:03;34.73;;;20.03;;
809;SDS011;387;48.772;9.186;2022-08-27T10:06:34;24.67;;;16.27;;
809;SDS011;387;48.772;9.186;2022-08-27T10:09:25;32.07;;;18.67;;
809;SDS011;387;48.772;9.186;2022-08-27T10:12:05;29.13;;;18.20;;
809;SDS011;387;48.772;9.186;2022-08-27T10:14:41;27.00;;;17.40;;
809;SDS011;387;48.772;9.186;2022-08-27T10:20:07;28.80;;;17.40;;
809;SDS011;387;48.772;9.186;2022-08-27T10:28:51;26.83;;;16.63;;
809;SDS011;387;48.772;9.186;2022-08-27T10:42:07;35.60;;;21.87;;
809;SDS011;387;48.772;9.186;2022-08-27T10:52:27;35.20;;;21.63;;
809;SDS011;387;48.772;9.186;2022-08-27T10:58:47;35.60;;;19.17;;
809;SDS011;387;48.772;9.186;2022-08-27T11:04:23;36.60;;;20.90;;
809;SDS011;387;48.772;9.186;2022-08-27T11:06:55;38.23;;;22.03;;
809;SDS011;387;48.772;9.186;2022-08-27T11:12:12;38.73;;;23.03;;
809;SDS011;387;48.772;9.186;2022-08-27T11:17:39;40.17;;;22.07;;
809;SDS011;387;48.772;9.186;2022-08-27T11:20:10;38.53;;;23.53;;
809;SDS011;387;48.772;9.186;2022-08-27T11:22:52;40.20;;;22.67;;
809;SDS011;387;48.772;9.186;2022-08-27T11:28:25;39.90;;;24.57;;
809;SDS011;387;48.772;9.186;2022-08-27T11:42:48;42.33;;;25.47;;
809;SDS011;387;48.772;9.186;2022-08-27T11:45:23;61.57;;;34.40;;
809;SDS011;387;48.772;9.186;2022-08-27T11:47:58;73.97;;;39.80;;
809;SDS011;387;48.772;9.186;2022-08-27T11:50:26;34.37;;;21.90;;
809;SDS011;387;48.772;9.186;2022-08-27T11:55:30;37.40;;;21.20;;
809;SDS011;387;48.772;9.186;2022-08-27T12:00:42;36.60;;;23.00;;
809;SDS011;387;48.772;9.186;2022-08-27T12:03:22;43.77;;;23.93;;
809;SDS011;387;48.772;9.186;2022-08-27T12:25:00;35.90;;;22.93;;
809;SDS011;387;48.772;9.186;2022-08-27T12:29:56;34.00;;;20.90;;
809;SDS011;387;48.772;9.186;2022-08-27T12:32:42;35.67;;;19.60;;
809;SDS011;387;48.772;9.186;2022-08-27T12:37:55;146.80;;;77.20;;
809;SDS011;387;48.772;9.186;2022-08-27T12:40:28;76.77;;;43.40;;
809;SDS011;387;48.772;9.186;2022-08-27T12:43:14;42.77;;;23.77;;
809;SDS011;387;48.772;9.186;2022-08-27T12:45:59;46.57;;;25.60;;
809;SDS011;387;48.772;9.186;2022-08-27T12:48:50;48.37;;;28.73;;
809;SDS011;387;48.772;9.186;2022-08-27T12:51:22;46.67;;;24.97;;
809;SDS011;387;48.772;9.186;2022-08-27T12:54:03;41.83;;;24.40;;
809;SDS011;387;48.772;9.186;2022-08-27T12:59:49;37.37;;;23.10;;
809;SDS011;387;48.772;9.186;2022-08-27T13:05:41;41.30;;;25.17;;
809;SDS011;387;48.772;9.186;2022-08-27T13:10:48;39.10;;;24.07;;
809;SDS011;387;48.772;9.186;2022-08-27T13:13:16;36.80;;;21.20;;
809;SDS011;387;48.772;9.186;2022-08-27T13:15:48;35.80;;;22.40;;
809;SDS011;387;48.772;9.186;2022-08-27T13:18:16;37.70;;;23.47;;
809;SDS011;387;48.772;9.186;2022-08-27T13:20:43;39.97;;;24.30;;
809;SDS011;387;48.772;9.186;2022-08-27T13:23:14;41.70;;;23.90;;
809;SDS011;387;48.772;9.186;2022-08-27T13:28:33;39.13;;;21.57;;
809;SDS011;387;48.772;9.186;2022-08-27T13:31:00;35.80;;;21.83;;
809;SDS011;387;48.772;9.186;2022-08-27T13:33:29;44.20;;;22.97;;
809;SDS011;387;48.772;9.186;2022-08-27T13:35:57;38.20;;;23.23;;
809;SDS011;387;48.772;9.186;2022-08-27T13:38:25;34.30;;;21.30;;
809;SDS011;387;48.772;9.186;2022-08-27T13:41:38;43.33;;;24.73;;
809;SDS011;387;48.772;9.186;2022-08-27T13:43:56;36.70;;;22.00;;
809;SDS011;387;48.772;9.186;2022-08-27T13:46:29;40.83;;;22.90;;
809;SDS011;387;48.772;9.186;2022-08-27T13:48:56;35.77;;;20.23;;
809;SDS011;387;48.772;9.186;2022-08-27T13:51:32;40.87;;;24.10;;
809;SDS011;387;48.772;9.186;2022-08-27T13:54:00;32.83;;;20.60;;
809;SDS011;387;48.772;9.186;2022-08-27T13:56:54;37.40;;;21.30;;
809;SDS011;387;48.772;9.186;2022-08-27T13:59:27;27.87;;;16.60;;
809;SDS011;387;48.772;9.186;2022-08-27T14:01:56;27.50;;;17.40;;
809;SDS011;387;48.772;9.186;2022-08-27T14:04:36;37.47;;;18.63;;
809;SDS011;387;48.772;9.186;2022-08-27T14:07:15;29.23;;;19.03;;
809;SDS011;387;48.772;9.186;2022-08-27T14:10:06;28.20;;;18.03;;
809;SDS011;387;48.772;9.186;2022-08-27T14:12:39;31.03;;;17.30;;
809;SDS011;387;48.772;9.186;2022-08-27T14:17:48;28.70;;;18.73;;
809;SDS011;387;48.772;9.186;2022-08-27T14:20:14;30.23;;;20.33;;
809;SDS011;387;48.772;9.186;2022-08-27T14:22:41;87.77;;;50.70;;
809;SDS011;387;48.772;9.186;2022-08-27T14:25:07;36.23;;;21.97;;
809;SDS011;387;48.772;9.186;2022-08-27T14:27:34;44.10;;;22.50;;
809;SDS011;387;48.772;9.186;2022-08-27T14:30:01;35.63;;;21.10;;
809;SDS011;387;48.772;9.186;2022-08-27T14:32:27;30.50;;;19.50;;
809;SDS011;387;48.772;9.186;2022-08-27T14:34:52;27.40;;;17.70;;
809;SDS011;387;48.772;9.186;2022-08-27T14:37:18;38.47;;;22.27;;
809;SDS011;387;48.772;9.186;2022-08-27T14:39:44;34.77;;;18.90;;
809;SDS011;387;48.772;9.186;2022-08-27T14:42:09;29.40;;;18.23;;
809;SDS011;387;48.772;9.186;2022-08-27T14:44:36;25.47;;;15.17;;
809;SDS011;387;48.772;9.186;2022-08-27T14:47:03;32.20;;;19.33;;
809;SDS011;387;48.772;9.186;2022-08-27T14:49:31;36.10;;;21.07;;
809;SDS011;387;48.772;9.186;2022-08-27T14:51:59;31.93;;;18.80;;
809;SDS011;387;48.772;9.186;2022-08-27T14:54:26;27.97;;;17.90;;
809;SDS011;387;48.772;9.186;2022-08-27T14:56:53;32.80;;;20.73;;
809;SDS011;387;48.772;9.186;2022-08-27T14:59:19;28.40;;;18.47;;
809;SDS011;387;48.772;9.186;2022-08-27T15:01:47;34.23;;;18.87;;
809;SDS011;387;48.772;9.186;2022-08-27T15:04:14;32.77;;;18.90;;
809;SDS011;387;48.772;9.186;2022-08-27T15:06:39;25.00;;;16.07;;
809;SDS011;387;48.772;9.186;2022-08-27T15:09:05;27.93;;;18.13;;
809;SDS011;387;48.772;9.186;2022-08-27T15:11:31;41.80;;;22.70;;
809;SDS011;387;48.772;9.186;2022-08-27T15:14:00;35.73;;;22.33;;
809;SDS011;387;48.772;9.186;2022-08-27T15:16:29;38.87;;;23.10;;
809;SDS011;387;48.772;9.186;2022-08-27T15:19:02;44.90;;;23.00;;
809;SDS011;387;48.772;9.186;2022-08-27T15:21:31;42.33;;;23.33;;
809;SDS011;387;48.772;9.186;2022-08-27T15:24:03;37.17;;;22.13;;
809;SDS011;387;48.772;9.186;2022-08-27T15:26:33;40.47;;;24.57;;
809;SDS011;387;48.772;9.186;2022-08-27T15:28:59;32.07;;;20.50;;
809;SDS011;387;48.772;9.186;2022-08-27T15:31:24;34.17;;;20.77;;
809;SDS011;387;48.772;9.186;2022-08-27T15:33:50;30.27;;;19.50;;
809;SDS011;387;48.772;9.186;2022-08-27T15:36:16;31.70;;;19.97;;
809;SDS011;387;48.772;9.186;2022-08-27T15:38:41;32.23;;;20.70;;
809;SDS011;387;48.772;9.186;2022-08-27T15:41:07;35.70;;;22.23;;
809;SDS011;387;48.772;9.186;2022-08-27T15:43:34;30.17;;;20.50;;
809;SDS011;387;48.772;9.186;2022-08-27T15:46:00;38.97;;;22.87;;
809;SDS011;387;48.772;9.186;2022-08-27T15:48:26;29.83;;;20.80;;
809;SDS011;387;48.772;9.186;2022-08-27T15:50:52;39.70;;;22.70;;
809;SDS011;387;48.772;9.186;2022-08-27T15:53:17;38.03;;;23.07;;
809;SDS011;387;48.772;9.186;2022-08-27T15:55:47;32.03;;;20.37;;
809;SDS011;387;48.772;9.186;2022-08-27T15:58:14;34.03;;;20.60;;
809;SDS011;387;48.772;9.186;2022-08-27T16:00:39;33.80;;;19.90;;
809;SDS011;387;48.772;9.186;2022-08-27T16:03:08;33.20;;;19.87;;
809;SDS011;387;48.772;9.186;2022-08-27T16:05:37;31.20;;;18.67;;
809;SDS011;387;48.772;9.186;2022-08-27T16:08:05;29.40;;;20.77;;
809;SDS011;387;48.772;9.186;2022-08-27T16:10:32;37.47;;;21.40;;
809;SDS011;387;48.772;9.186;2022-08-27T16:12:57;34.30;;;21.13;;
809;SDS011;387;48.772;9.186;2022-08-27T16:15:23;40.93;;;20.47;;
809;SDS011;387;48.772;9.186;2022-08-27T16:17:54;31.03;;;19.37;;
809;SDS011;387;48.772;9.186;2022-08-27T16:20:22;37.93;;;23.30;;
809;SDS011;387;48.772;9.186;2022-08-27T16:22:49;35.53;;;22.43;;
809;SDS011;387;48.772;9.186;2022-08-27T16:25:16;36.50;;;22.70;;
809;SDS011;387;48.772;9.186;2022-08-27T16:27:45;35.07;;;22.00;;
809;SDS011;387;48.772;9.186;2022-08-27T16:30:12;35.33;;;22.80;;
809;SDS011;387;48.772;9.186;2022-08-27T16:32:38;43.03;;;24.20;;
809;SDS011;387;48.772;9.186;2022-08-27T16:35:04;43.10;;;25.70;;
809;SDS011;387;48.772;9.186;2022-08-27T16:37:31;41.83;;;25.93;;
809;SDS011;387;48.772;9.186;2022-08-27T16:39:56;40.67;;;25.00;;
809;SDS011;387;48.772;9.186;2022-08-27T16:42:22;48.77;;;26.77;;
809;SDS011;387;48.772;9.186;2022-08-27T16:44:48;43.63;;;26.33;;
809;SDS011;387;48.772;9.186;2022-08-27T16:47:13;47.30;;;25.70;;
809;SDS011;387;48.772;9.186;2022-08-27T16:49:39;42.07;;;24.47;;
809;SDS011;387;48.772;9.186;2022-08-27T16:52:23;46.43;;;25.93;;
809;SDS011;387;48.772;9.186;2022-08-27T16:54:50;51.50;;;27.10;;
809;SDS011;387;48.772;9.186;2022-08-27T16:57:15;55.47;;;30.60;;
809;SDS011;387;48.772;9.186;2022-08-27T16:59:41;51.87;;;29.50;;
809;SDS011;387;48.772;9.186;2022-08-27T17:05:02;49.67;;;28.93;;
809;SDS011;387;48.772;9.186;2022-08-27T17:07:28;48.37;;;26.93;;
809;SDS011;387;48.772;9.186;2022-08-27T17:09:54;56.83;;;29.33;;
809;SDS011;387;48.772;9.186;2022-08-27T17:12:20;47.37;;;26.80;;
809;SDS011;387;48.772;9.186;2022-08-27T17:14:46;53.43;;;30.63;;
809;SDS011;387;48.772;9.186;2022-08-27T17:17:13;64.80;;;29.20;;
809;SDS011;387;48.772;9.186;2022-08-27T17:19:40;51.73;;;27.50;;
809;SDS011;387;48.772;9.186;2022-08-27T17:22:05;48.13;;;26.27;;